Time;durP1;ratioP1;P1;durP2;ratioP2;P2;SDS_P1;SDS_P2;PMS_P1;PMS_P2;Temp;Humidity;BMP_temperature;BMP_pressure;BME280_temperature;BME280_humidity;BME280_pressure;Samples;Min_cycle;Max_cycle;Signal;HPM_P1;HPM_P2
2023/08/08 00:01:46;;;;;;;6.60;2.00;;;14.30;84.60;;;;;;5040709;28;20204;-80
2023/08/08 00:04:11;;;;;;;3.23;1.83;;;14.30;68.60;;;;;;5039345;28;20191;-80
2023/08/08 00:06:38;;;;;;;3.90;1.80;;;14.30;66.40;;;;;;5040113;28;20275;-80
2023/08/08 00:09:04;;;;;;;3.70;2.00;;;14.30;24.60;;;;;;5040580;28;20253;-80
2023/08/08 00:11:30;;;;;;;4.93;1.87;;;14.20;57.60;;;;;;5040961;28;20581;-80
2023/08/08 00:13:56;;;;;;;2.70;1.90;;;14.20;17.60;;;;;;5040813;28;20246;-79
2023/08/08 00:16:23;;;;;;;2.70;1.67;;;14.20;68.30;;;;;;5042539;28;20626;-80
2023/08/08 00:18:50;;;;;;;2.50;1.60;;;14.20;35.70;;;;;;5041833;28;20195;-81
2023/08/08 00:21:16;;;;;;;4.73;2.30;;;14.30;53.00;;;;;;5040677;28;20204;-80
2023/08/08 00:23:42;;;;;;;4.53;1.70;;;14.10;27.40;;;;;;5043429;28;20184;-80
2023/08/08 00:26:07;;;;;;;4.00;1.63;;;14.10;28.10;;;;;;5041288;28;20187;-80
2023/08/08 00:28:33;;;;;;;3.13;1.90;;;14.10;1.00;;;;;;5041837;28;20215;-80
2023/08/08 00:30:58;;;;;;;2.20;1.50;;;14.10;1.00;;;;;;5042230;28;20207;-80
2023/08/08 00:33:24;;;;;;;2.60;1.90;;;14.10;1.00;;;;;;5041000;28;20176;-80
2023/08/08 00:35:49;;;;;;;2.30;1.60;;;14.10;1.00;;;;;;5045707;28;20173;-80
2023/08/08 00:38:16;;;;;;;4.13;1.90;;;14.00;1.00;;;;;;5050565;28;20232;-80
2023/08/08 00:40:41;;;;;;;2.73;1.57;;;14.00;1.00;;;;;;5049385;28;20225;-80
2023/08/08 00:43:07;;;;;;;2.90;1.40;;;14.00;1.00;;;;;;5050925;28;20223;-79
2023/08/08 00:45:34;;;;;;;4.83;1.57;;;14.00;1.00;;;;;;5050447;28;20184;-80
2023/08/08 00:47:59;;;;;;;2.43;1.80;;;14.00;1.00;;;;;;5049800;28;20211;-79
2023/08/08 00:50:25;;;;;;;4.90;2.17;;;14.10;1.00;;;;;;5052682;28;20196;-80
2023/08/08 00:52:51;;;;;;;2.53;1.83;;;14.00;1.00;;;;;;5055473;28;20212;-80
2023/08/08 00:55:16;;;;;;;4.23;1.87;;;14.00;1.00;;;;;;5054907;28;20173;-79
2023/08/08 00:57:42;;;;;;;2.87;1.50;;;14.00;1.00;;;;;;5055956;28;20224;-79
2023/08/08 01:00:11;;;;;;;3.33;2.00;;;13.90;1.00;;;;;;5053546;28;20576;-79
2023/08/08 01:02:38;;;;;;;5.30;1.90;;;14.00;1.00;;;;;;5050361;28;20179;-80
2023/08/08 01:05:04;;;;;;;3.03;1.90;;;14.00;1.00;;;;;;5043141;28;20184;-79
2023/08/08 01:07:57;;;;;;;6.07;2.13;;;14.00;1.00;;;;;;5042897;28;20231;-80
2023/08/08 01:10:27;;;;;;;3.67;1.80;;;14.00;1.00;;;;;;5043769;28;20648;-80
2023/08/08 01:12:59;;;;;;;4.70;2.07;;;14.00;1.00;;;;;;5042463;28;20157;-79
2023/08/08 01:15:25;;;;;;;3.83;1.97;;;13.90;1.00;;;;;;5042708;28;20165;-80
2023/08/08 01:17:51;;;;;;;5.43;1.83;;;13.90;1.00;;;;;;5042717;28;20180;-80
2023/08/08 01:20:18;;;;;;;4.07;2.07;;;13.90;1.00;;;;;;5044889;28;20188;-80
2023/08/08 01:23:18;;;;;;;3.00;2.17;;;13.90;20.10;;;;;;5044537;28;20259;-79
2023/08/08 01:25:44;;;;;;;5.33;1.90;;;13.90;47.10;;;;;;5047507;28;20145;-79
2023/08/08 01:28:10;;;;;;;5.37;1.70;;;13.90;5.40;;;;;;5056453;28;20208;-79
2023/08/08 01:30:35;;;;;;;5.73;2.20;;;13.70;8.20;;;;;;5047923;28;20192;-80
2023/08/08 01:33:03;;;;;;;3.77;2.10;;;13.80;1.00;;;;;;5040962;28;20191;-80
2023/08/08 01:35:31;;;;;;;2.53;1.60;;;13.90;65.60;;;;;;5039415;28;20592;-80
2023/08/08 01:38:20;;;;;;;3.70;2.20;;;13.70;80.80;;;;;;5041180;28;20175;-80
2023/08/08 01:40:46;;;;;;;4.60;2.17;;;13.70;44.40;;;;;;5039398;28;20255;-79
2023/08/08 01:43:14;;;;;;;4.70;1.90;;;13.70;87.40;;;;;;5038515;28;20180;-79
2023/08/08 01:45:41;;;;;;;6.63;2.47;;;13.70;99.90;;;;;;5038395;28;20184;-80
2023/08/08 01:48:08;;;;;;;3.33;2.17;;;13.70;99.90;;;;;;5038004;28;20583;-79
2023/08/08 01:50:34;;;;;;;5.77;2.63;;;13.60;99.90;;;;;;5039944;28;20196;-78
2023/08/08 01:52:59;;;;;;;3.97;2.30;;;13.70;99.90;;;;;;5039468;28;20198;-80
2023/08/08 01:55:25;;;;;;;3.30;2.13;;;13.70;99.90;;;;;;5038802;28;20176;-80
2023/08/08 01:57:50;;;;;;;6.53;2.30;;;13.70;99.90;;;;;;5040856;28;20180;-80
2023/08/08 02:00:16;;;;;;;4.30;2.03;;;13.90;99.90;;;;;;5040103;28;20200;-79
2023/08/08 02:02:41;;;;;;;3.90;2.00;;;13.70;99.90;;;;;;5039404;28;20263;-80
2023/08/08 02:05:07;;;;;;;5.00;2.50;;;13.70;99.90;;;;;;5039304;28;20177;-78
2023/08/08 02:07:32;;;;;;;3.60;2.20;;;13.70;99.90;;;;;;5042035;28;20181;-79
2023/08/08 02:09:58;;;;;;;4.40;2.10;;;13.70;99.90;;;;;;5041025;28;20200;-80
2023/08/08 02:12:24;;;;;;;4.53;2.10;;;13.70;99.90;;;;;;5039264;28;20240;-80
2023/08/08 02:14:49;;;;;;;3.00;2.10;;;13.70;99.90;;;;;;5040946;28;20172;-80
2023/08/08 02:17:15;;;;;;;4.30;2.03;;;13.70;99.90;;;;;;5039837;28;20241;-79
2023/08/08 02:19:40;;;;;;;4.17;2.13;;;13.70;99.90;;;;;;5039107;28;20184;-79
2023/08/08 02:22:06;;;;;;;6.57;2.20;;;13.70;99.90;;;;;;5038178;28;20215;-80
2023/08/08 02:24:32;;;;;;;5.27;2.17;;;13.70;99.90;;;;;;5038613;28;20196;-79
2023/08/08 02:26:57;;;;;;;3.37;2.30;;;13.70;99.90;;;;;;5040418;28;20176;-79
2023/08/08 02:29:23;;;;;;;6.50;2.17;;;13.80;99.90;;;;;;5037974;28;20222;-79
2023/08/08 02:31:48;;;;;;;4.07;2.10;;;13.70;99.90;;;;;;5039657;28;20192;-79
2023/08/08 02:34:14;;;;;;;2.77;1.83;;;13.80;99.90;;;;;;5038453;28;20172;-80
2023/08/08 02:36:39;;;;;;;7.33;2.40;;;13.80;99.90;;;;;;5041428;28;20168;-79
2023/08/08 02:39:05;;;;;;;4.53;2.20;;;13.80;99.90;;;;;;5039112;28;20176;-80
2023/08/08 02:41:30;;;;;;;7.07;2.00;;;13.80;99.90;;;;;;5039951;28;20208;-80
2023/08/08 02:43:56;;;;;;;4.70;2.60;;;13.80;61.70;;;;;;5056607;28;20198;-80
2023/08/08 02:46:22;;;;;;;6.87;2.50;;;13.90;5.30;;;;;;5060236;28;20186;-80
2023/08/08 02:48:47;;;;;;;5.03;2.10;;;13.90;2.90;;;;;;5058210;28;20234;-78
2023/08/08 02:51:13;;;;;;;5.93;2.20;;;13.90;34.50;;;;;;5057503;28;20275;-80
2023/08/08 02:53:38;;;;;;;4.43;2.27;;;13.80;33.10;;;;;;5057645;28;20239;-80
2023/08/08 02:56:04;;;;;;;3.67;2.10;;;13.90;1.00;;;;;;5058731;28;20601;-79
2023/08/08 02:58:29;;;;;;;6.93;2.00;;;13.90;12.40;;;;;;5056321;28;20183;-80
2023/08/08 03:00:55;;;;;;;7.23;2.57;;;13.90;1.00;;;;;;5057019;28;20195;-79
2023/08/08 03:03:20;;;;;;;3.03;1.90;;;13.90;13.40;;;;;;5058889;28;20172;-80
2023/08/08 03:05:46;;;;;;;4.50;2.17;;;13.90;37.10;;;;;;5058507;28;20182;-80
2023/08/08 03:08:11;;;;;;;4.50;2.20;;;13.90;94.40;;;;;;5057572;28;20210;-80
2023/08/08 03:10:37;;;;;;;3.37;2.13;;;14.10;99.90;;;;;;5058226;28;20222;-78
2023/08/08 03:13:03;;;;;;;6.03;2.73;;;13.90;99.90;;;;;;5051470;28;20181;-80
2023/08/08 03:15:29;;;;;;;4.40;2.17;;;13.90;99.90;;;;;;5039939;28;20195;-80
2023/08/08 03:17:55;;;;;;;4.27;2.20;;;13.90;99.90;;;;;;5040642;28;20659;-80
2023/08/08 03:20:21;;;;;;;4.57;2.20;;;13.90;99.90;;;;;;5040731;28;20185;-80
2023/08/08 03:22:46;;;;;;;3.50;1.87;;;13.80;99.90;;;;;;5040320;28;20180;-80
2023/08/08 03:25:12;;;;;;;8.50;2.87;;;13.90;99.90;;;;;;5038989;28;20180;-80
2023/08/08 03:27:37;;;;;;;5.90;2.13;;;13.90;99.90;;;;;;5040347;28;20179;-80
2023/08/08 03:30:03;;;;;;;7.13;2.27;;;13.90;99.90;;;;;;5048703;28;20733;-79
2023/08/08 03:32:29;;;;;;;7.50;2.50;;;13.90;99.90;;;;;;5057191;28;20183;-78
2023/08/08 03:34:55;;;;;;;7.50;2.50;;;13.80;99.90;;;;;;5057768;28;20176;-80
2023/08/08 03:37:20;;;;;;;3.27;2.00;;;13.80;99.90;;;;;;5059346;28;20183;-80
2023/08/08 03:39:46;;;;;;;5.13;2.17;;;13.80;99.90;;;;;;5049188;28;20181;-79
2023/08/08 03:42:11;;;;;;;4.63;2.27;;;13.80;99.90;;;;;;5052181;28;20564;-79
2023/08/08 03:44:37;;;;;;;7.50;2.17;;;13.80;99.90;;;;;;5044830;28;20180;-80
2023/08/08 03:47:03;;;;;;;6.00;2.40;;;13.80;99.90;;;;;;5053823;28;20219;-79
2023/08/08 03:49:28;;;;;;;5.97;2.63;;;13.80;99.90;;;;;;5057542;28;20199;-80
2023/08/08 03:51:54;;;;;;;3.70;2.23;;;13.80;99.90;;;;;;5058441;28;20196;-79
2023/08/08 03:54:19;;;;;;;7.93;2.50;;;13.80;99.90;;;;;;5059033;28;20179;-79
2023/08/08 03:56:45;;;;;;;5.43;2.00;;;13.70;99.90;;;;;;5059064;28;20190;-80
2023/08/08 03:59:10;;;;;;;4.20;2.30;;;13.70;99.90;;;;;;5056880;28;20178;-79
2023/08/08 04:01:37;;;;;;;5.67;2.67;;;13.70;99.90;;;;;;5055693;28;20203;-79
2023/08/08 04:04:03;;;;;;;4.57;2.60;;;13.70;99.90;;;;;;5056639;28;20358;-80
2023/08/08 04:06:29;;;;;;;7.60;3.00;;;13.70;99.90;;;;;;5055749;28;20557;-80
2023/08/08 04:08:55;;;;;;;8.83;2.70;;;13.70;99.90;;;;;;5057529;28;20214;-80
2023/08/08 04:11:20;;;;;;;7.23;2.40;;;13.70;99.90;;;;;;5056477;28;20187;-79
2023/08/08 04:13:46;;;;;;;6.00;2.73;;;13.70;99.90;;;;;;5057297;28;20213;-79
2023/08/08 04:16:11;;;;;;;8.13;2.90;;;13.70;99.90;;;;;;5051555;28;20232;-79
2023/08/08 04:18:37;;;;;;;10.13;2.73;;;13.70;99.90;;;;;;5034665;28;20180;-81
2023/08/08 04:21:03;;;;;;;6.63;2.80;;;13.70;99.90;;;;;;5036259;28;20203;-81
2023/08/08 04:23:29;;;;;;;7.10;2.30;;;13.70;99.90;;;;;;5036004;28;20196;-80
2023/08/08 04:25:55;;;;;;;8.13;2.53;;;13.70;99.90;;;;;;5034624;28;20207;-81
2023/08/08 04:28:20;;;;;;;8.23;2.80;;;13.70;99.90;;;;;;5058223;28;20211;-81
2023/08/08 04:30:46;;;;;;;9.17;2.70;;;13.70;99.90;;;;;;5078325;28;20191;-80
2023/08/08 04:33:11;;;;;;;6.83;2.80;;;13.70;99.90;;;;;;5052331;28;20246;-81
2023/08/08 04:35:37;;;;;;;8.57;2.93;;;13.70;99.90;;;;;;5036763;28;20184;-80
2023/08/08 04:38:03;;;;;;;12.03;3.03;;;13.70;99.90;;;;;;5036165;28;20177;-81
2023/08/08 04:40:28;;;;;;;4.77;2.93;;;13.70;99.90;;;;;;5033073;28;20203;-81
2023/08/08 04:42:54;;;;;;;12.80;3.10;;;13.80;99.90;;;;;;5034096;28;20172;-82
2023/08/08 04:45:20;;;;;;;8.33;3.33;;;13.70;99.90;;;;;;5038789;28;20333;-81
2023/08/08 04:47:46;;;;;;;9.27;3.20;;;13.70;99.90;;;;;;5038534;28;20268;-80
2023/08/08 04:50:12;;;;;;;7.50;3.03;;;13.70;99.90;;;;;;5036654;28;20219;-81
2023/08/08 04:52:37;;;;;;;13.17;4.63;;;13.70;99.90;;;;;;5037873;28;20332;-82
2023/08/08 04:55:03;;;;;;;9.53;3.33;;;13.70;99.90;;;;;;5037272;28;20192;-81
2023/08/08 04:57:29;;;;;;;6.50;3.17;;;13.80;99.90;;;;;;5034355;28;20268;-78
2023/08/08 04:59:54;;;;;;;8.27;3.33;;;13.80;99.90;;;;;;5032478;28;20266;-79
2023/08/08 05:02:20;;;;;;;7.27;3.67;;;13.80;99.90;;;;;;5032500;28;20215;-79
2023/08/08 05:04:46;;;;;;;8.17;3.57;;;13.80;99.90;;;;;;5032118;28;20234;-79
2023/08/08 05:07:11;;;;;;;7.87;4.07;;;13.80;99.90;;;;;;5032345;28;20231;-78
2023/08/08 05:09:37;;;;;;;13.37;3.70;;;13.80;99.90;;;;;;5033096;28;20210;-78
2023/08/08 05:12:03;;;;;;;11.70;4.00;;;13.80;99.90;;;;;;5031956;28;20201;-79
2023/08/08 05:14:28;;;;;;;4.77;3.00;;;13.80;99.90;;;;;;5032380;28;20172;-78
2023/08/08 05:16:54;;;;;;;10.63;3.80;;;13.80;99.90;;;;;;5034584;28;20175;-79
2023/08/08 05:19:19;;;;;;;11.50;3.60;;;13.90;99.90;;;;;;5034842;28;20169;-79
2023/08/08 05:21:45;;;;;;;6.07;3.63;;;13.90;99.90;;;;;;5033069;28;20223;-79
2023/08/08 05:24:10;;;;;;;12.43;4.00;;;13.80;99.90;;;;;;5034804;28;20641;-79
2023/08/08 05:26:36;;;;;;;12.47;4.10;;;13.90;99.90;;;;;;5034359;28;20176;-79
2023/08/08 05:29:02;;;;;;;13.43;4.60;;;13.90;99.90;;;;;;5033261;28;20208;-79
2023/08/08 05:31:27;;;;;;;9.87;3.93;;;13.90;99.90;;;;;;5034919;28;20188;-79
2023/08/08 05:33:53;;;;;;;11.27;4.20;;;13.90;99.90;;;;;;5033545;28;20176;-79
2023/08/08 05:36:19;;;;;;;11.43;4.10;;;13.90;99.90;;;;;;5035836;28;20173;-79
2023/08/08 05:38:44;;;;;;;9.63;4.00;;;13.90;99.90;;;;;;5038123;28;20251;-79
2023/08/08 05:41:10;;;;;;;11.00;4.30;;;13.90;99.90;;;;;;5036771;28;20204;-79
2023/08/08 05:43:36;;;;;;;7.27;4.07;;;13.90;99.90;;;;;;5036898;28;20176;-79
2023/08/08 05:46:02;;;;;;;12.90;5.03;;;14.00;99.90;;;;;;5036396;28;20195;-79
2023/08/08 05:48:27;;;;;;;12.87;5.40;;;13.90;99.90;;;;;;5038482;28;20200;-79
2023/08/08 05:50:53;;;;;;;14.20;4.50;;;14.00;99.90;;;;;;5038985;28;20192;-79
2023/08/08 05:53:19;;;;;;;11.57;4.70;;;14.00;99.90;;;;;;5039959;28;20247;-79
2023/08/08 05:55:44;;;;;;;8.20;4.33;;;14.00;99.90;;;;;;5039503;28;20204;-79
2023/08/08 05:58:10;;;;;;;10.83;4.43;;;14.10;99.90;;;;;;5049355;28;20609;-79
2023/08/08 06:00:35;;;;;;;11.57;5.00;;;14.10;99.90;;;;;;5050026;28;20200;-79
2023/08/08 06:03:01;;;;;;;14.00;5.90;;;14.10;99.90;;;;;;5036777;28;20180;-79
2023/08/08 06:05:28;;;;;;;12.53;5.43;;;14.10;99.90;;;;;;5036802;28;20180;-78
2023/08/08 06:07:55;;;;;;;19.23;5.70;;;14.20;99.90;;;;;;5035525;28;20184;-79
2023/08/08 06:10:21;;;;;;;11.67;5.57;;;14.20;99.90;;;;;;5037093;28;20254;-79
2023/08/08 06:12:46;;;;;;;13.53;6.07;;;14.20;99.90;;;;;;5035845;28;20628;-79
2023/08/08 06:15:12;;;;;;;13.70;5.87;;;14.10;99.90;;;;;;5035379;28;20186;-79
2023/08/08 06:17:38;;;;;;;15.00;5.93;;;14.20;99.90;;;;;;5036857;28;20180;-78
2023/08/08 06:20:04;;;;;;;19.60;7.23;;;14.20;99.90;;;;;;5035350;28;20183;-79
2023/08/08 06:22:30;;;;;;;12.20;6.33;;;14.30;99.90;;;;;;5037178;28;20172;-79
2023/08/08 06:24:55;;;;;;;18.60;7.80;;;14.20;99.90;;;;;;5036193;28;20179;-78
2023/08/08 06:27:21;;;;;;;13.87;6.97;;;14.30;99.90;;;;;;5035370;28;20225;-78
2023/08/08 06:29:46;;;;;;;12.37;7.23;;;14.30;99.90;;;;;;5036342;28;20333;-79
2023/08/08 06:32:12;;;;;;;20.57;8.20;;;14.30;99.90;;;;;;5035726;28;20326;-79
2023/08/08 06:34:38;;;;;;;14.63;7.33;;;14.40;99.90;;;;;;5035246;28;20172;-78
2023/08/08 06:37:03;;;;;;;13.37;7.87;;;14.40;99.90;;;;;;5036102;28;20175;-78
2023/08/08 06:39:29;;;;;;;20.27;8.13;;;14.50;99.90;;;;;;5034755;28;20272;-78
2023/08/08 06:41:55;;;;;;;17.20;7.80;;;14.50;99.90;;;;;;5036251;28;20287;-79
2023/08/08 06:44:21;;;;;;;19.63;8.27;;;14.50;99.90;;;;;;5034547;28;20275;-78
2023/08/08 06:46:46;;;;;;;17.37;7.90;;;14.50;99.90;;;;;;5036123;28;20179;-78
2023/08/08 06:49:12;;;;;;;12.57;7.23;;;14.60;99.90;;;;;;5034354;28;20200;-79
2023/08/08 06:51:37;;;;;;;16.73;6.90;;;14.60;99.90;;;;;;5034680;28;20188;-78
2023/08/08 06:54:03;;;;;;;13.87;6.70;;;14.70;99.90;;;;;;5035568;28;20648;-79
2023/08/08 06:56:29;;;;;;;12.30;6.30;;;14.60;99.90;;;;;;5036034;28;20179;-79
2023/08/08 06:58:54;;;;;;;12.27;6.57;;;14.70;99.90;;;;;;5034330;28;20494;-78
2023/08/08 07:01:20;;;;;;;13.97;6.47;;;14.70;99.90;;;;;;5035793;28;20769;-79
2023/08/08 07:03:46;;;;;;;14.43;6.63;;;14.70;99.90;;;;;;5035965;28;20195;-79
2023/08/08 07:06:12;;;;;;;14.43;6.20;;;14.80;99.90;;;;;;5035652;28;20609;-78
2023/08/08 07:08:39;;;;;;;19.13;6.30;;;14.90;99.90;;;;;;5035795;28;20192;-79
2023/08/08 07:11:06;;;;;;;23.47;6.60;;;15.00;99.90;;;;;;5035331;28;20197;-78
2023/08/08 07:13:31;;;;;;;17.23;5.97;;;15.00;99.90;;;;;;5035676;28;20169;-79
2023/08/08 07:15:57;;;;;;;16.37;5.47;;;15.00;99.90;;;;;;5036217;28;20178;-79
2023/08/08 07:18:22;;;;;;;15.50;5.17;;;15.10;99.90;;;;;;5034736;28;20184;-79
2023/08/08 07:20:49;;;;;;;13.60;4.80;;;15.10;99.90;;;;;;5035628;28;20223;-79
2023/08/08 07:23:15;;;;;;;12.00;5.60;;;15.20;99.90;;;;;;5035789;28;20171;-79
2023/08/08 07:25:40;;;;;;;14.03;5.70;;;15.30;99.90;;;;;;5036298;28;20644;-79
2023/08/08 07:28:06;;;;;;;10.97;4.83;;;15.40;99.90;;;;;;5033613;28;20694;-79
2023/08/08 07:30:31;;;;;;;9.17;4.70;;;15.40;93.80;;;;;;5034275;28;20199;-79
2023/08/08 07:32:57;;;;;;;13.10;5.53;;;15.40;1.00;;;;;;5035723;28;20181;-79
2023/08/08 07:35:22;;;;;;;10.90;4.90;;;15.50;1.00;;;;;;5035521;28;20187;-79
2023/08/08 07:37:48;;;;;;;9.00;4.53;;;15.50;1.00;;;;;;5035541;28;20198;-79
2023/08/08 07:40:17;;;;;;;10.13;4.40;;;15.60;1.00;;;;;;5035849;28;20223;-79
2023/08/08 07:42:44;;;;;;;15.00;4.10;;;15.70;1.00;;;;;;5033986;28;20203;-79
2023/08/08 07:45:09;;;;;;;16.13;5.07;;;15.70;1.00;;;;;;5033619;28;20230;-79
2023/08/08 07:47:35;;;;;;;11.17;4.20;;;15.60;1.00;;;;;;5035491;28;20180;-78
2023/08/08 07:50:01;;;;;;;10.60;4.07;;;15.80;1.00;;;;;;5035373;28;20227;-79
2023/08/08 07:52:26;;;;;;;12.37;3.87;;;15.80;1.00;;;;;;5034004;28;20263;-79
2023/08/08 07:54:52;;;;;;;8.87;3.73;;;15.90;1.00;;;;;;5033852;28;20172;-79
2023/08/08 07:57:18;;;;;;;7.17;3.93;;;15.90;1.00;;;;;;5034483;28;20232;-79
2023/08/08 07:59:43;;;;;;;12.53;3.60;;;15.90;99.90;;;;;;5035319;28;20204;-78
2023/08/08 08:02:09;;;;;;;8.63;3.70;;;16.00;1.00;;;;;;5035933;28;20192;-79
2023/08/08 08:04:35;;;;;;;8.37;3.83;;;16.00;1.00;;;;;;5036349;28;20584;-80
2023/08/08 08:07:01;;;;;;;8.27;3.40;;;16.10;99.90;;;;;;5035479;28;20183;-79
2023/08/08 08:09:26;;;;;;;11.97;3.57;;;16.10;1.00;;;;;;5039874;28;20200;-78
2023/08/08 08:11:52;;;;;;;12.83;3.63;;;16.10;1.00;;;;;;5045787;28;20271;-78
2023/08/08 08:14:17;;;;;;;7.97;3.27;;;16.20;1.00;;;;;;5044193;28;20196;-79
2023/08/08 08:16:44;;;;;;;6.27;3.13;;;16.20;53.30;;;;;;5037954;28;20210;-80
2023/08/08 08:19:10;;;;;;;10.60;3.33;;;16.30;99.90;;;;;;5032920;28;20172;-79
2023/08/08 08:21:36;;;;;;;7.40;3.00;;;16.30;1.00;;;;;;5033157;28;20230;-78
2023/08/08 08:24:02;;;;;;;9.40;3.13;;;16.40;1.00;;;;;;5033482;28;20179;-78
2023/08/08 08:26:27;;;;;;;8.73;3.23;;;16.40;99.90;;;;;;5034538;28;20296;-79
2023/08/08 08:28:53;;;;;;;10.70;3.97;;;16.40;1.00;;;;;;5033326;28;20239;-79
2023/08/08 08:31:19;;;;;;;6.63;2.97;;;16.50;99.90;;;;;;5032997;28;20219;-79
2023/08/08 08:33:44;;;;;;;6.03;2.43;;;16.60;1.00;;;;;;5032958;28;20172;-79
2023/08/08 08:36:10;;;;;;;5.93;2.50;;;16.60;1.00;;;;;;5032823;28;20647;-79
2023/08/08 08:38:35;;;;;;;8.87;3.00;;;16.80;99.90;;;;;;5032778;28;20172;-79
2023/08/08 08:41:02;;;;;;;9.60;2.87;;;16.80;1.00;;;;;;5034232;28;20192;-79
2023/08/08 08:43:30;;;;;;;10.00;3.13;;;16.90;99.90;;;;;;5033079;28;20278;-79
2023/08/08 08:45:57;;;;;;;5.97;2.57;;;17.00;1.00;;;;;;5036099;28;20184;-78
2023/08/08 08:48:22;;;;;;;5.57;2.90;;;17.10;1.00;;;;;;5049460;28;20211;-79
2023/08/08 08:50:49;;;;;;;9.77;3.10;;;17.10;99.90;;;;;;5033781;28;20612;-79
2023/08/08 08:53:15;;;;;;;6.87;2.73;;;17.10;99.90;;;;;;5033199;28;20263;-79
2023/08/08 08:55:41;;;;;;;8.50;2.90;;;17.00;99.90;;;;;;5034315;28;20172;-79
2023/08/08 08:58:07;;;;;;;10.37;2.83;;;17.10;1.00;;;;;;5034238;28;20161;-79
2023/08/08 09:00:33;;;;;;;8.13;2.90;;;17.20;99.90;;;;;;5033723;28;20207;-79
2023/08/08 09:02:59;;;;;;;5.70;2.60;;;17.20;1.00;;;;;;5039260;28;20243;-79
2023/08/08 09:05:29;;;;;;;8.47;2.60;;;17.30;1.00;;;;;;5053316;28;20180;-78
2023/08/08 09:07:55;;;;;;;8.27;2.40;;;17.30;99.90;;;;;;5054124;28;20190;-79
2023/08/08 09:10:21;;;;;;;6.40;2.90;;;17.30;1.00;;;;;;5053970;28;20203;-79
2023/08/08 09:12:48;;;;;;;10.77;3.20;;;17.30;99.90;;;;;;5052423;28;20184;-79
2023/08/08 09:15:14;;;;;;;7.07;2.90;;;17.40;99.90;;;;;;5036635;28;20176;-78
2023/08/08 09:17:44;;;;;;;8.43;2.30;;;17.40;1.00;;;;;;5036230;28;20310;-79
2023/08/08 09:20:11;;;;;;;8.60;2.30;;;17.40;99.90;;;;;;5044053;28;20179;-79
2023/08/08 09:22:37;;;;;;;6.80;2.97;;;17.40;99.90;;;;;;5054212;28;20194;-79
2023/08/08 09:25:04;;;;;;;6.83;2.63;;;17.50;1.00;;;;;;5055048;28;20363;-79
2023/08/08 09:27:30;;;;;;;6.90;2.57;;;17.50;99.90;;;;;;5054587;28;20277;-79
2023/08/08 09:29:55;;;;;;;6.03;2.43;;;17.60;99.90;;;;;;5056853;28;20675;-79
2023/08/08 09:32:21;;;;;;;7.37;2.73;;;17.70;1.00;;;;;;5057459;28;20178;-80
2023/08/08 09:34:46;;;;;;;4.93;2.37;;;17.70;99.90;;;;;;5057343;28;20263;-79
2023/08/08 09:37:14;;;;;;;5.80;2.90;;;17.70;1.00;;;;;;5056065;28;20175;-79
2023/08/08 09:39:39;;;;;;;8.63;2.43;;;17.70;99.90;;;;;;5057483;28;20681;-78
2023/08/08 09:42:07;;;;;;;7.17;2.43;;;17.70;1.00;;;;;;5054403;28;20212;-79
2023/08/08 09:44:35;;;;;;;6.93;2.80;;;17.70;1.00;;;;;;5051283;28;20203;-79
2023/08/08 09:47:00;;;;;;;8.73;2.20;;;17.70;99.90;;;;;;5037385;28;20171;-79
2023/08/08 09:49:28;;;;;;;6.40;2.50;;;17.70;1.00;;;;;;5037503;28;20196;-78
2023/08/08 09:51:54;;;;;;;8.67;2.50;;;17.60;1.00;;;;;;5037135;28;20215;-79
2023/08/08 09:54:20;;;;;;;8.73;2.60;;;17.80;1.00;;;;;;5037247;28;20164;-79
2023/08/08 09:56:48;;;;;;;6.60;2.40;;;17.90;1.00;;;;;;5037256;28;20165;-79
2023/08/08 09:59:16;;;;;;;10.57;2.70;;;17.70;99.90;;;;;;5037739;28;20203;-79
2023/08/08 10:01:42;;;;;;;11.70;2.47;;;17.80;99.90;;;;;;5037804;28;20204;-79
2023/08/08 10:04:08;;;;;;;7.53;2.50;;;17.80;1.00;;;;;;5037215;28;20195;-79
2023/08/08 10:06:34;;;;;;;6.27;2.33;;;17.80;99.90;;;;;;5037544;28;20177;-79
2023/08/08 10:09:01;;;;;;;6.57;2.30;;;17.80;1.00;;;;;;5036950;28;20198;-79
2023/08/08 10:11:28;;;;;;;7.63;2.13;;;17.80;46.00;;;;;;5037002;28;20228;-80
2023/08/08 10:13:54;;;;;;;11.10;2.90;;;17.90;1.00;;;;;;5037552;28;20173;-80
2023/08/08 10:16:22;;;;;;;5.60;1.97;;;17.90;99.90;;;;;;5037606;28;20172;-79
2023/08/08 10:19:02;;;;;;;3.73;1.90;;;17.90;99.90;;;;;;5036994;28;20271;-79
2023/08/08 10:21:33;;;;;;;10.20;1.90;;;18.00;99.90;;;;;;5039981;28;20656;-80
2023/08/08 10:24:07;;;;;;;11.73;2.10;;;18.10;99.90;;;;;;5038350;28;20184;-80
2023/08/08 10:26:33;;;;;;;6.23;2.17;;;18.00;28.00;;;;;;5037472;28;20172;-79
2023/08/08 10:29:00;;;;;;;6.70;2.30;;;17.90;99.90;;;;;;5039246;28;20208;-78
2023/08/08 10:31:26;;;;;;;8.20;2.40;;;17.90;1.00;;;;;;5041757;28;20621;-79
2023/08/08 10:34:04;;;;;;;6.87;2.30;;;18.00;99.90;;;;;;5039007;28;20175;-79
2023/08/08 10:36:50;;;;;;;7.80;1.97;;;18.00;70.30;;;;;;5049350;28;20245;-79
2023/08/08 10:39:17;;;;;;;5.97;1.77;;;18.10;77.30;;;;;;5056701;28;20168;-80
2023/08/08 10:41:50;;;;;;;4.00;1.90;;;18.00;29.70;;;;;;5056585;28;20207;-79
2023/08/08 10:44:23;;;;;;;4.07;2.00;;;18.00;1.00;;;;;;5056645;28;20218;-80
2023/08/08 10:46:50;;;;;;;7.53;2.20;;;17.90;1.00;;;;;;5056411;28;20175;-79
2023/08/08 10:49:17;;;;;;;5.30;2.10;;;17.90;1.00;;;;;;5053433;28;20203;-79
2023/08/08 10:51:46;;;;;;;9.13;2.27;;;17.90;1.00;;;;;;5055622;28;20196;-80
2023/08/08 10:54:23;;;;;;;9.40;2.13;;;18.00;1.00;;;;;;5054923;28;20616;-79
2023/08/08 10:56:56;;;;;;;6.37;1.87;;;18.00;1.00;;;;;;5054853;28;20639;-80
2023/08/08 10:59:27;;;;;;;4.77;1.63;;;18.00;99.90;;;;;;5055876;28;20213;-79
2023/08/08 11:01:53;;;;;;;5.20;1.60;;;17.90;99.90;;;;;;5056450;28;20218;-79
2023/08/08 11:04:21;;;;;;;7.30;2.43;;;17.90;99.80;;;;;;5045384;28;20188;-80
2023/08/08 11:06:48;;;;;;;7.50;1.80;;;17.90;99.90;;;;;;5035646;28;20643;-80
2023/08/08 11:09:16;;;;;;;4.07;2.03;;;17.80;1.00;;;;;;5036412;28;20188;-80
2023/08/08 11:11:43;;;;;;;8.33;2.37;;;17.80;1.00;;;;;;5034397;28;20228;-79
2023/08/08 11:14:14;;;;;;;11.83;2.57;;;17.80;99.90;;;;;;5034711;28;20649;-79
2023/08/08 11:16:40;;;;;;;5.67;2.47;;;17.90;99.90;;;;;;5034678;28;20177;-80
2023/08/08 11:19:06;;;;;;;6.73;2.63;;;17.90;1.00;;;;;;5035683;28;20172;-79
2023/08/08 11:21:38;;;;;;;6.67;3.20;;;17.90;1.00;;;;;;5035131;28;20235;-78
2023/08/08 11:24:06;;;;;;;9.23;3.30;;;18.00;95.90;;;;;;5035205;28;20188;-80
2023/08/08 11:26:32;;;;;;;6.83;2.93;;;18.10;1.00;;;;;;5035737;28;20176;-79
2023/08/08 11:29:03;;;;;;;5.33;2.40;;;18.10;99.90;;;;;;5035634;28;20613;-80
2023/08/08 11:31:29;;;;;;;5.77;2.27;;;18.20;1.00;;;;;;5034429;28;20197;-80
2023/08/08 11:33:56;;;;;;;6.13;2.17;;;18.30;1.00;;;;;;5035307;28;20609;-80
2023/08/08 11:36:23;;;;;;;6.13;2.13;;;18.30;67.90;;;;;;5035949;28;20325;-79
2023/08/08 11:38:50;;;;;;;5.80;2.10;;;18.30;1.00;;;;;;5041732;28;20187;-80
2023/08/08 11:41:19;;;;;;;6.27;2.33;;;18.30;1.00;;;;;;5034089;28;20192;-80
2023/08/08 11:43:45;;;;;;;5.43;2.00;;;18.20;1.00;;;;;;5035298;28;20168;-79
2023/08/08 11:46:12;;;;;;;5.00;2.30;;;18.30;1.00;;;;;;5035178;28;20173;-79
2023/08/08 11:48:39;;;;;;;8.63;2.30;;;18.20;99.90;;;;;;5035620;28;20227;-79
2023/08/08 11:51:05;;;;;;;5.97;2.17;;;18.10;1.00;;;;;;5035668;28;20216;-79
2023/08/08 11:53:31;;;;;;;4.40;1.90;;;18.30;99.90;;;;;;5035328;28;20206;-79
2023/08/08 11:55:58;;;;;;;5.47;2.17;;;18.40;99.90;;;;;;5035413;28;20176;-79
2023/08/08 11:58:25;;;;;;;4.33;2.10;;;18.40;1.00;;;;;;5035010;28;20180;-79
2023/08/08 12:00:51;;;;;;;5.33;1.83;;;18.40;99.90;;;;;;5034420;28;20632;-78
2023/08/08 12:03:18;;;;;;;5.60;1.97;;;18.40;1.00;;;;;;5034572;28;20644;-78
2023/08/08 12:05:46;;;;;;;9.20;2.27;;;18.40;99.90;;;;;;5034911;28;20225;-78
2023/08/08 12:08:12;;;;;;;8.60;2.30;;;18.40;1.00;;;;;;5034079;28;20180;-79
2023/08/08 12:10:37;;;;;;;7.63;1.97;;;18.40;1.00;;;;;;5033770;28;20192;-79
2023/08/08 12:13:03;;;;;;;8.87;2.00;;;18.40;1.00;;;;;;5033858;28;20572;-80
2023/08/08 12:15:34;;;;;;;7.33;1.70;;;18.40;1.00;;;;;;5033557;28;20172;-79
2023/08/08 12:18:01;;;;;;;7.47;2.07;;;18.30;99.90;;;;;;5035070;28;20179;-79
2023/08/08 12:20:31;;;;;;;5.73;2.20;;;18.50;1.00;;;;;;5035167;28;20283;-79
2023/08/08 12:22:57;;;;;;;5.67;2.20;;;18.60;1.40;;;;;;5034677;28;20172;-79
2023/08/08 12:25:23;;;;;;;5.17;1.97;;;18.60;1.00;;;;;;5035147;28;20176;-79
2023/08/08 12:27:49;;;;;;;10.20;2.30;;;18.60;1.00;;;;;;5035559;28;20273;-79
2023/08/08 12:30:15;;;;;;;8.43;2.33;;;18.80;99.90;;;;;;5035589;28;20283;-78
2023/08/08 12:32:40;;;;;;;4.37;1.80;;;18.80;1.00;;;;;;5035431;28;20200;-79
2023/08/08 12:35:06;;;;;;;4.87;2.23;;;18.90;99.90;;;;;;5036797;28;20175;-79
2023/08/08 12:37:32;;;;;;;7.70;2.30;;;19.00;1.00;;;;;;5036046;28;20164;-79
2023/08/08 12:39:58;;;;;;;8.97;2.17;;;19.00;16.20;;;;;;5040516;28;20172;-79
2023/08/08 12:42:23;;;;;;;7.83;2.60;;;18.90;1.00;;;;;;5046513;28;20180;-78
2023/08/08 12:44:51;;;;;;;5.70;2.27;;;18.80;99.90;;;;;;5048680;28;20183;-78